Time;durP1;ratioP1;P1;durP2;ratioP2;P2;SDS_P1;SDS_P2;PMS_P1;PMS_P2;Temp;Humidity;BMP_temperature;BMP_pressure;BME280_temperature;BME280_humidity;BME280_pressure;Samples;Min_cycle;Max_cycle;Signal;HPM_P1;HPM_P2
2022/03/25 00:01:43;;;;;;;77.00;65.70;;;;;;;1.07;49.92;98919.38;106233;1271;25299;-77
2022/03/25 00:04:17;;;;;;;72.20;60.70;;;;;;;1.03;50.04;98919.06;106157;1271;22804;-77
2022/03/25 00:06:45;;;;;;;70.90;63.10;;;;;;;0.98;50.07;98914.44;106406;1271;22645;-77
2022/03/25 00:09:13;;;;;;;75.60;62.00;;;;;;;0.93;50.14;98913.73;106246;1271;22634;-78
2022/03/25 00:11:41;;;;;;;67.50;58.70;;;;;;;0.86;50.16;98912.04;106219;1271;22553;-77
2022/03/25 00:14:09;;;;;;;74.10;57.70;;;;;;;0.78;50.37;98917.75;106245;1271;24641;-77
2022/03/25 00:16:37;;;;;;;72.30;57.70;;;;;;;0.72;50.75;98916.05;106215;1271;22541;-77
2022/03/25 00:19:05;;;;;;;58.50;52.40;;;;;;;0.67;51.23;98916.16;106265;1271;25426;-77
2022/03/25 00:21:33;;;;;;;59.00;53.10;;;;;;;0.61;51.25;98913.13;106201;1271;22754;-75
2022/03/25 00:24:01;;;;;;;59.50;53.30;;;;;;;0.54;52.61;98917.05;106195;1271;25302;-78
2022/03/25 00:26:30;;;;;;;65.10;58.40;;;;;;;0.48;52.17;98912.46;106313;1271;24495;-78
2022/03/25 00:28:58;;;;;;;70.90;62.70;;;;;;;0.39;52.20;98908.45;106163;1271;22540;-78
2022/03/25 00:31:26;;;;;;;65.00;57.40;;;;;;;0.36;52.19;98906.46;105928;1271;164484;-78
2022/03/25 00:33:54;;;;;;;84.00;75.10;;;;;;;0.38;51.97;98903.39;106072;1274;25477;-77
2022/03/25 00:36:23;;;;;;;69.00;62.40;;;;;;;0.41;51.80;98903.59;106284;1271;22547;-76
2022/03/25 00:38:51;;;;;;;61.10;54.70;;;;;;;0.41;51.88;98902.21;106307;1270;24437;-76
2022/03/25 00:41:18;;;;;;;59.40;53.30;;;;;;;0.38;52.04;98898.98;106031;1271;22573;-78
2022/03/25 00:43:47;;;;;;;59.40;53.60;;;;;;;0.35;51.86;98895.13;106232;1271;22687;-77
2022/03/25 00:46:15;;;;;;;60.40;53.90;;;;;;;0.31;52.21;98896.77;106096;1271;22588;-78
2022/03/25 00:48:45;;;;;;;60.00;53.70;;;;;;;0.26;52.58;98892.70;106250;1271;22556;-77
2022/03/25 00:51:13;;;;;;;60.20;54.10;;;;;;;0.23;52.91;98894.78;106157;1271;24083;-77
2022/03/25 00:53:40;;;;;;;60.20;54.00;;;;;;;0.22;53.64;98892.63;106195;1271;25416;-76
2022/03/25 00:56:09;;;;;;;61.60;55.30;;;;;;;0.23;53.44;98891.76;106178;1271;22545;-76
2022/03/25 00:58:37;;;;;;;59.00;52.30;;;;;;;0.22;53.18;98887.60;106012;1271;23223;-77
2022/03/25 01:01:05;;;;;;;63.30;56.70;;;;;;;0.20;52.95;98886.77;106012;1272;24348;-76
2022/03/25 01:03:35;;;;;;;66.10;59.70;;;;;;;0.16;52.79;98884.56;106248;1271;25332;-77
2022/03/25 01:06:03;;;;;;;61.00;54.90;;;;;;;0.10;53.16;98884.53;106322;1271;25531;-77
2022/03/25 01:08:32;;;;;;;57.70;52.00;;;;;;;0.06;53.81;98883.43;106168;1271;22527;-80
2022/03/25 01:11:04;;;;;;;55.60;49.80;;;;;;;0.07;53.21;98883.56;106166;1271;22668;-77
2022/03/25 01:13:34;;;;;;;53.80;48.30;;;;;;;0.09;53.43;98884.54;106265;1271;25379;-79
2022/03/25 01:16:04;;;;;;;57.50;50.20;;;;;;;0.09;53.65;98885.88;106168;1271;22562;-78
2022/03/25 01:18:32;;;;;;;56.00;50.10;;;;;;;0.07;53.58;98885.52;106041;1274;24446;-76
2022/03/25 01:21:00;;;;;;;55.30;50.10;;;;;;;0.04;54.01;98888.17;106166;1271;22680;-79
2022/03/25 01:23:28;;;;;;;52.60;47.40;;;;;;;0.02;54.00;98881.45;106133;1271;25684;-78
2022/03/25 01:25:57;;;;;;;64.20;57.40;;;;;;;-0.02;53.78;98880.64;105973;1271;24089;-75
2022/03/25 01:28:25;;;;;;;163.30;108.30;;;;;;;-0.06;53.90;98881.70;105983;1271;22876;-77
2022/03/25 01:30:54;;;;;;;277.10;141.30;;;;;;;-0.12;54.42;98874.13;106153;1271;22533;-79
2022/03/25 01:33:23;;;;;;;208.10;96.90;;;;;;;-0.13;54.95;98873.64;106011;1271;23407;-78
2022/03/25 01:35:50;;;;;;;95.90;63.40;;;;;;;-0.16;55.68;98875.44;106049;1271;23051;-79
2022/03/25 01:38:18;;;;;;;63.20;56.00;;;;;;;-0.17;56.46;98873.66;106187;1271;23570;-78
2022/03/25 01:40:46;;;;;;;52.30;46.70;;;;;;;-0.14;55.92;98873.65;106195;1270;24102;-78
2022/03/25 01:43:14;;;;;;;50.70;45.70;;;;;;;-0.10;55.16;98873.23;106612;1271;22579;-79
2022/03/25 01:45:42;;;;;;;47.90;43.10;;;;;;;-0.06;55.52;98871.85;106318;1271;24413;-78
2022/03/25 01:48:12;;;;;;;50.10;43.50;;;;;;;-0.05;55.46;98878.52;106375;1271;25660;-78
2022/03/25 01:50:42;;;;;;;46.60;42.00;;;;;;;-0.04;55.57;98874.88;106115;1271;22532;-78
2022/03/25 01:53:17;;;;;;;54.70;49.10;;;;;;;-0.02;55.35;98878.64;106019;1271;24260;-78
2022/03/25 01:55:54;;;;;;;49.10;44.10;;;;;;;0.05;54.97;98877.65;106436;1271;22871;-77
2022/03/25 01:58:24;;;;;;;46.20;41.10;;;;;;;0.05;55.01;98880.58;106012;1274;25392;-78
2022/03/25 02:00:53;;;;;;;51.10;45.60;;;;;;;0.07;55.70;98879.69;106077;1271;22546;-77
2022/03/25 02:03:21;;;;;;;53.20;43.20;;;;;;;0.09;57.18;98878.67;105974;1274;22546;-78
2022/03/25 02:05:50;;;;;;;49.20;44.40;;;;;;;0.22;57.13;98876.72;106069;1271;24299;-77
2022/03/25 02:08:20;;;;;;;47.00;41.90;;;;;;;0.35;57.16;98875.91;105953;1272;22567;-77
2022/03/25 02:10:48;;;;;;;44.30;39.50;;;;;;;0.43;57.28;98877.44;106180;1271;22658;-76
2022/03/25 02:13:20;;;;;;;60.00;53.60;;;;;;;0.47;56.23;98879.39;105985;1271;22691;-77
2022/03/25 02:15:52;;;;;;;63.60;57.90;;;;;;;0.47;55.94;98875.51;106128;1271;22751;-75
2022/03/25 02:18:21;;;;;;;57.20;52.10;;;;;;;0.46;55.74;98875.80;106395;1271;22572;-78
2022/03/25 02:20:50;;;;;;;56.00;50.80;;;;;;;0.39;56.38;98875.25;106449;1271;24513;-76
2022/03/25 02:23:22;;;;;;;61.80;54.90;;;;;;;0.32;56.67;98877.30;106464;1271;25370;-78
2022/03/25 02:25:53;;;;;;;51.70;46.70;;;;;;;0.26;56.33;98874.23;106294;1271;22607;-77
2022/03/25 02:28:22;;;;;;;48.50;43.70;;;;;;;0.23;56.22;98878.48;106091;1271;22556;-77
2022/03/25 02:30:51;;;;;;;53.30;47.60;;;;;;;0.22;55.96;98878.59;105912;1271;25416;-79
2022/03/25 02:33:19;;;;;;;58.70;53.00;;;;;;;0.20;55.87;98878.73;106421;1271;22554;-76
2022/03/25 02:35:50;;;;;;;62.30;55.90;;;;;;;0.21;55.95;98883.41;106307;1271;22529;-78
2022/03/25 02:38:21;;;;;;;71.70;57.90;;;;;;;0.24;55.80;98878.73;106338;1271;22536;-78
2022/03/25 02:40:51;;;;;;;46.70;41.20;;;;;;;0.32;55.96;98880.33;106239;1271;25662;-78
2022/03/25 02:43:19;;;;;;;43.50;39.00;;;;;;;0.42;55.97;98876.22;105986;1271;22570;-77
2022/03/25 02:46:01;;;;;;;43.90;38.80;;;;;;;0.48;55.85;98878.16;106344;1271;22618;-77
2022/03/25 02:48:29;;;;;;;59.80;53.50;;;;;;;0.45;55.97;98885.83;106198;1272;22750;-77
2022/03/25 02:50:58;;;;;;;43.80;39.40;;;;;;;0.34;56.73;98886.77;105967;1271;24476;-76
2022/03/25 02:53:27;;;;;;;43.80;39.60;;;;;;;0.26;56.86;98886.74;105906;1271;24255;-78
2022/03/25 02:55:56;;;;;;;41.10;36.90;;;;;;;0.19;56.62;98887.25;106230;1273;22612;-82
2022/03/25 02:58:24;;;;;;;49.10;43.90;;;;;;;0.08;56.40;98886.70;106177;1271;22676;-78
2022/03/25 03:00:52;;;;;;;43.40;36.90;;;;;;;-0.02;56.63;98887.89;106366;1271;22549;-79
2022/03/25 03:03:21;;;;;;;46.40;41.70;;;;;;;-0.11;57.02;98887.58;105945;1272;24416;-78
2022/03/25 03:05:49;;;;;;;44.90;40.40;;;;;;;-0.18;56.94;98886.16;105990;1271;22556;-78
2022/03/25 03:08:17;;;;;;;45.70;39.50;;;;;;;-0.23;57.26;98888.72;105953;1271;22790;-78
2022/03/25 03:10:46;;;;;;;46.00;41.10;;;;;;;-0.27;56.95;98885.21;105962;1271;22581;-78
2022/03/25 03:13:19;;;;;;;45.80;38.90;;;;;;;-0.28;56.98;98882.37;106147;1271;22688;-78
2022/03/25 03:15:48;;;;;;;40.10;36.10;;;;;;;-0.27;56.97;98883.71;106056;1271;25370;-78
2022/03/25 03:18:16;;;;;;;45.40;40.80;;;;;;;-0.28;57.29;98882.86;106109;1271;22547;-79
2022/03/25 03:20:44;;;;;;;46.70;41.80;;;;;;;-0.28;57.09;98886.50;105981;1274;24402;-78
2022/03/25 03:23:12;;;;;;;52.80;46.10;;;;;;;-0.29;57.18;98883.20;106056;1271;22746;-78
2022/03/25 03:25:40;;;;;;;46.80;42.00;;;;;;;-0.30;57.05;98880.55;106063;1271;24078;-79
2022/03/25 03:28:08;;;;;;;43.90;39.30;;;;;;;-0.34;57.25;98880.75;106239;1271;25364;-78
2022/03/25 03:30:36;;;;;;;45.90;40.90;;;;;;;-0.38;57.68;98882.01;105985;1271;25403;-78
2022/03/25 03:33:05;;;;;;;45.60;40.70;;;;;;;-0.43;57.50;98881.19;105993;1271;26735;-78
2022/03/25 03:35:34;;;;;;;43.80;39.40;;;;;;;-0.47;57.45;98879.89;105938;1271;23923;-78
2022/03/25 03:38:04;;;;;;;49.40;42.00;;;;;;;-0.49;58.75;98880.41;105936;1271;22733;-77
2022/03/25 03:40:33;;;;;;;53.60;48.00;;;;;;;-0.43;60.70;98880.66;105970;1271;22563;-78
2022/03/25 03:43:01;;;;;;;61.50;45.00;;;;;;;-0.32;58.98;98885.75;105939;1274;23939;-78
2022/03/25 03:45:29;;;;;;;59.50;53.90;;;;;;;-0.24;58.56;98886.40;105996;1271;22561;-79
2022/03/25 03:47:56;;;;;;;51.40;45.00;;;;;;;-0.17;58.46;98886.20;105913;1271;25306;-79
2022/03/25 03:50:25;;;;;;;45.90;41.10;;;;;;;-0.17;58.28;98891.38;105980;1271;25376;-78
2022/03/25 03:52:53;;;;;;;46.50;40.20;;;;;;;-0.20;58.23;98889.55;106000;1271;22746;-77
2022/03/25 03:55:21;;;;;;;44.30;39.40;;;;;;;-0.24;58.35;98889.99;105977;1274;24264;-78
2022/03/25 03:57:49;;;;;;;54.20;47.80;;;;;;;-0.29;58.45;98890.96;106046;1271;25484;-77
2022/03/25 04:00:17;;;;;;;53.70;46.90;;;;;;;-0.34;58.64;98890.65;105970;1271;24113;-78
2022/03/25 04:02:46;;;;;;;52.40;47.30;;;;;;;-0.37;58.62;98888.19;105980;1271;24404;-79
2022/03/25 04:05:14;;;;;;;48.80;43.80;;;;;;;-0.39;58.47;98887.91;105991;1272;22532;-78
2022/03/25 04:07:47;;;;;;;50.80;45.60;;;;;;;-0.45;58.28;98889.21;105954;1272;22704;-78
2022/03/25 04:10:18;;;;;;;56.80;50.60;;;;;;;-0.53;58.28;98892.34;106051;1271;22995;-79
2022/03/25 04:12:46;;;;;;;53.00;47.40;;;;;;;-0.59;58.41;98890.95;106261;1271;22723;-77
2022/03/25 04:15:15;;;;;;;56.30;47.60;;;;;;;-0.64;58.52;98892.41;105956;1271;22709;-76
2022/03/25 04:17:45;;;;;;;54.40;48.80;;;;;;;-0.67;58.61;98891.23;106029;1274;23014;-78
2022/03/25 04:20:14;;;;;;;59.60;50.60;;;;;;;-0.69;59.40;98892.04;106005;1271;22581;-78
2022/03/25 04:22:44;;;;;;;63.20;55.00;;;;;;;-0.71;59.50;98889.29;105954;1271;22536;-79
2022/03/25 04:25:13;;;;;;;66.70;59.90;;;;;;;-0.73;60.53;98886.17;105987;1271;22710;-77
2022/03/25 04:27:52;;;;;;;58.30;52.20;;;;;;;-0.73;60.12;98886.94;105974;1272;22869;-78
2022/03/25 04:30:34;;;;;;;58.80;50.70;;;;;;;-0.74;59.71;98885.68;106236;1271;24237;-78
2022/03/25 04:33:02;;;;;;;67.70;54.30;;;;;;;-0.74;59.95;98886.25;106247;1271;23939;-79
2022/03/25 04:35:32;;;;;;;61.00;52.60;;;;;;;-0.70;59.90;98888.90;106200;1271;22637;-78
2022/03/25 04:38:01;;;;;;;64.50;57.60;;;;;;;-0.62;59.83;98885.16;106111;1271;24260;-78
2022/03/25 04:40:30;;;;;;;69.50;59.00;;;;;;;-0.57;59.97;98884.13;105940;1271;23086;-78
2022/03/25 04:43:00;;;;;;;66.40;59.30;;;;;;;-0.54;60.01;98885.45;106059;1274;25525;-77
2022/03/25 04:45:30;;;;;;;69.60;62.30;;;;;;;-0.54;60.32;98888.88;106266;1271;22553;-78
2022/03/25 04:47:59;;;;;;;71.80;57.70;;;;;;;-0.57;60.57;98886.56;106221;1271;23992;-78
2022/03/25 04:50:27;;;;;;;68.30;58.30;;;;;;;-0.57;60.54;98890.31;106186;1271;22754;-77
2022/03/25 04:52:55;;;;;;;63.90;57.30;;;;;;;-0.56;61.36;98892.67;105973;1271;22765;-78
2022/03/25 04:55:23;;;;;;;64.60;58.10;;;;;;;-0.55;61.75;98892.52;106171;1271;22571;-77
2022/03/25 04:57:51;;;;;;;58.40;52.00;;;;;;;-0.54;62.11;98892.02;106171;1271;25656;-77
2022/03/25 05:00:19;;;;;;;56.30;50.50;;;;;;;-0.50;61.80;98899.39;106154;1271;22526;-77
2022/03/25 05:02:47;;;;;;;58.00;50.10;;;;;;;-0.44;61.29;98896.22;105990;1271;22763;-76
2022/03/25 05:05:15;;;;;;;62.10;54.70;;;;;;;-0.37;60.95;98899.28;105969;1271;22609;-77
2022/03/25 05:07:45;;;;;;;62.50;56.00;;;;;;;-0.34;61.18;98901.89;105966;1271;25423;-77
2022/03/25 05:10:14;;;;;;;59.30;50.50;;;;;;;-0.36;61.05;98903.98;106252;1271;22717;-76
2022/03/25 05:12:44;;;;;;;59.30;50.20;;;;;;;-0.33;61.26;98909.30;106536;1271;25251;-76
2022/03/25 05:15:12;;;;;;;53.80;48.10;;;;;;;-0.28;61.01;98909.80;106187;1271;22605;-77
2022/03/25 05:17:51;;;;;;;54.60;48.50;;;;;;;-0.27;60.81;98911.05;106140;1273;24085;-77
2022/03/25 05:20:21;;;;;;;64.20;57.50;;;;;;;-0.27;60.62;98912.20;106432;1271;24335;-79
2022/03/25 05:22:49;;;;;;;67.20;60.10;;;;;;;-0.20;61.05;98916.15;106410;1271;25657;-76
2022/03/25 05:25:18;;;;;;;62.40;55.60;;;;;;;-0.11;61.16;98918.22;106360;1271;22776;-77
2022/03/25 05:27:49;;;;;;;69.00;61.70;;;;;;;0.01;61.06;98920.02;106371;1271;23617;-76
2022/03/25 05:30:25;;;;;;;78.90;67.90;;;;;;;0.16;61.07;98919.96;106360;1271;22594;-77
2022/03/25 05:32:54;;;;;;;74.20;66.20;;;;;;;0.34;61.25;98923.84;106437;1271;23923;-77
2022/03/25 05:35:24;;;;;;;94.10;65.10;;;;;;;0.50;61.07;98930.53;106244;1271;22690;-78
2022/03/25 05:37:53;;;;;;;88.80;71.10;;;;;;;0.64;61.02;98933.80;106441;1271;23022;-78
2022/03/25 05:40:23;;;;;;;151.20;92.00;;;;;;;0.76;60.79;98931.96;106307;1272;24381;-81
2022/03/25 05:42:52;;;;;;;133.30;89.70;;;;;;;0.88;60.93;98931.51;106294;1274;25300;-78
2022/03/25 05:45:22;;;;;;;139.90;93.70;;;;;;;1.02;60.76;98931.79;106305;1271;22526;-78
2022/03/25 05:47:51;;;;;;;156.80;94.50;;;;;;;1.14;60.66;98939.59;106300;1271;24424;-77
2022/03/25 05:50:19;;;;;;;132.50;93.90;;;;;;;1.27;60.75;98936.47;106240;1271;22546;-78
2022/03/25 05:52:47;;;;;;;138.60;89.90;;;;;;;1.40;60.53;98937.17;106444;1271;22746;-78
2022/03/25 05:55:16;;;;;;;129.30;90.20;;;;;;;1.51;60.64;98941.91;106471;1271;22541;-78
2022/03/25 05:57:46;;;;;;;146.70;95.90;;;;;;;1.62;60.34;98945.88;106346;1271;24261;-79
2022/03/25 06:00:15;;;;;;;149.20;103.60;;;;;;;1.71;60.42;98945.30;106427;1271;25277;-78
2022/03/25 06:02:45;;;;;;;159.80;106.90;;;;;;;1.79;60.20;98945.57;106378;1271;22654;-78
2022/03/25 06:05:14;;;;;;;176.90;114.40;;;;;;;1.89;60.15;98948.55;106462;1270;22756;-79
2022/03/25 06:07:44;;;;;;;170.10;117.40;;;;;;;1.96;60.12;98955.17;106368;1271;25550;-78
2022/03/25 06:10:14;;;;;;;168.00;113.50;;;;;;;2.05;59.99;98954.41;106373;1270;22540;-79
2022/03/25 06:12:42;;;;;;;163.50;109.80;;;;;;;2.16;59.99;98958.69;106414;1270;24387;-78
2022/03/25 06:15:11;;;;;;;179.20;119.50;;;;;;;2.29;60.07;98967.05;106351;1271;25426;-79
2022/03/25 06:17:44;;;;;;;180.10;122.20;;;;;;;2.41;60.10;98967.88;106403;1271;22550;-79
2022/03/25 06:20:13;;;;;;;186.80;125.20;;;;;;;2.53;60.12;98960.99;106216;1271;22635;-78
2022/03/25 06:22:42;;;;;;;181.80;124.80;;;;;;;2.66;60.23;98966.80;106279;1271;22615;-79
2022/03/25 06:25:11;;;;;;;169.80;115.00;;;;;;;2.78;60.08;98964.80;106211;1271;24384;-78
2022/03/25 06:27:50;;;;;;;166.00;114.10;;;;;;;2.87;60.13;98962.52;106432;1271;24383;-79
2022/03/25 06:30:19;;;;;;;165.60;112.80;;;;;;;2.98;60.04;98963.33;106178;1274;22540;-78
2022/03/25 06:32:48;;;;;;;174.20;114.10;;;;;;;3.11;59.89;98963.83;106246;1271;23966;-78
2022/03/25 06:35:17;;;;;;;176.20;114.90;;;;;;;3.23;59.76;98966.34;106350;1271;22599;-78
2022/03/25 06:37:46;;;;;;;184.10;112.90;;;;;;;3.34;59.58;98966.33;106254;1271;25406;-77
2022/03/25 06:40:15;;;;;;;169.50;109.20;;;;;;;3.46;59.69;98967.19;106266;1271;22767;-78
2022/03/25 06:42:43;;;;;;;157.00;104.40;;;;;;;3.58;59.75;98967.88;106177;1271;23385;-77
2022/03/25 06:45:13;;;;;;;393.20;247.40;;;;;;;3.70;59.69;98965.66;106367;1271;22467;-80
2022/03/25 06:47:42;;;;;;;209.00;127.00;;;;;;;3.83;59.56;98971.48;106975;1271;25427;-77
2022/03/25 06:50:13;;;;;;;295.10;180.50;;;;;;;3.96;59.49;98968.09;106753;1271;22696;-79
2022/03/25 06:52:42;;;;;;;195.60;129.00;;;;;;;4.09;59.26;98966.48;106319;1274;22874;-81
2022/03/25 06:55:11;;;;;;;219.50;137.20;;;;;;;4.22;59.18;98966.19;106565;1271;22550;-77
2022/03/25 06:57:46;;;;;;;152.00;102.30;;;;;;;4.37;58.98;98969.89;106263;1271;22677;-77
2022/03/25 07:00:14;;;;;;;162.40;102.10;;;;;;;4.51;59.28;98977.76;106280;1271;22566;-78
2022/03/25 07:02:43;;;;;;;177.50;104.60;;;;;;;4.66;59.07;98980.48;106310;1271;24421;-78
2022/03/25 07:05:13;;;;;;;151.30;99.10;;;;;;;4.80;58.98;98979.83;106354;1271;25340;-78
2022/03/25 07:07:41;;;;;;;164.40;101.80;;;;;;;4.94;58.97;98974.41;106476;1270;24375;-78
2022/03/25 07:10:11;;;;;;;163.90;110.50;;;;;;;5.09;58.72;98973.95;106238;1271;22619;-78
2022/03/25 07:12:41;;;;;;;164.30;104.10;;;;;;;5.25;58.60;98974.38;106191;1271;23375;-78
2022/03/25 07:15:10;;;;;;;152.60;95.60;;;;;;;5.40;58.82;98973.97;106240;1271;22544;-77
2022/03/25 07:17:38;;;;;;;148.60;99.80;;;;;;;5.56;58.78;98973.14;106266;1271;22644;-78
2022/03/25 07:20:06;;;;;;;177.60;102.20;;;;;;;5.73;58.55;98974.47;106221;1271;25372;-77
2022/03/25 07:22:34;;;;;;;151.70;92.80;;;;;;;5.91;58.39;98972.80;106204;1271;24433;-78
2022/03/25 07:25:02;;;;;;;160.90;94.60;;;;;;;6.09;58.38;98975.98;106255;1271;23444;-78
2022/03/25 07:27:31;;;;;;;158.90;102.10;;;;;;;6.28;58.13;98974.08;106253;1271;24438;-78
2022/03/25 07:29:58;;;;;;;124.20;80.50;;;;;;;6.44;58.02;98969.50;106194;1271;22622;-78
2022/03/25 07:32:26;;;;;;;133.90;89.40;;;;;;;6.65;57.85;98972.92;106262;1272;22643;-77
2022/03/25 07:34:54;;;;;;;158.60;95.80;;;;;;;6.85;57.74;98973.08;106255;1271;23660;-78
2022/03/25 07:37:22;;;;;;;136.00;87.90;;;;;;;7.07;57.71;98976.24;106251;1271;22543;-78
2022/03/25 07:39:50;;;;;;;158.90;86.20;;;;;;;7.27;57.53;98977.07;106299;1271;24339;-77
2022/03/25 07:42:19;;;;;;;60.80;46.20;;;;;;;7.46;57.24;98974.66;106179;1271;25376;-78
2022/03/25 07:44:47;;;;;;;66.30;57.50;;;;;;;7.65;56.52;98972.23;106255;1271;22715;-76
2022/03/25 07:47:15;;;;;;;101.80;68.70;;;;;;;7.84;56.42;98975.58;106283;1271;23042;-78
2022/03/25 07:49:43;;;;;;;86.10;58.60;;;;;;;8.02;56.22;98979.98;106267;1271;25368;-78
2022/03/25 07:52:11;;;;;;;98.70;73.20;;;;;;;8.20;55.97;98977.55;106334;1271;24371;-77
2022/03/25 07:54:40;;;;;;;105.10;74.40;;;;;;;8.36;55.68;98978.05;106245;1271;22869;-78
2022/03/25 07:57:07;;;;;;;104.60;70.80;;;;;;;8.49;55.74;98975.96;106268;1271;26583;-77
2022/03/25 07:59:36;;;;;;;122.70;72.90;;;;;;;8.64;55.30;98979.71;106022;1271;22672;-78
2022/03/25 08:02:05;;;;;;;106.70;71.80;;;;;;;8.78;54.90;98982.02;106309;1271;23008;-77
2022/03/25 08:04:33;;;;;;;130.80;78.60;;;;;;;8.91;54.37;98983.41;106343;1271;22572;-77
2022/03/25 08:07:01;;;;;;;123.50;81.50;;;;;;;9.05;54.26;98983.06;106290;1271;22722;-78
2022/03/25 08:09:29;;;;;;;124.00;80.30;;;;;;;9.18;53.62;98985.33;106543;1271;25517;-77
2022/03/25 08:11:57;;;;;;;102.30;73.30;;;;;;;9.27;53.10;98984.88;106540;1271;22570;-77
2022/03/25 08:14:25;;;;;;;100.90;74.30;;;;;;;9.37;53.25;98985.92;106194;1271;24394;-79
2022/03/25 08:16:53;;;;;;;95.60;74.50;;;;;;;9.48;53.39;98988.59;106264;1271;22682;-78
2022/03/25 08:19:21;;;;;;;88.00;69.90;;;;;;;9.60;52.91;98986.16;106268;1271;25480;-78
2022/03/25 08:21:49;;;;;;;72.50;57.50;;;;;;;9.71;52.84;98983.88;106255;1271;24269;-75
2022/03/25 08:29:50;;;;;;;50.80;43.80;;;;;;;10.20;51.51;98979.39;106080;1274;22546;-77
2022/03/25 08:32:18;;;;;;;58.30;47.50;;;;;;;10.37;49.69;98982.27;106288;1274;22566;-78
2022/03/25 08:34:46;;;;;;;64.60;53.40;;;;;;;10.49;49.84;98986.73;106101;1271;23232;-79
2022/03/25 08:37:13;;;;;;;49.10;37.30;;;;;;;10.60;49.21;98983.81;106282;1271;22681;-78
2022/03/25 08:39:42;;;;;;;33.60;28.80;;;;;;;10.67;48.50;98984.40;106739;1271;23220;-77
2022/03/25 08:42:10;;;;;;;37.60;29.40;;;;;;;10.75;47.77;98984.59;106406;1271;22729;-78
2022/03/25 08:44:38;;;;;;;36.00;26.50;;;;;;;10.80;48.53;98983.55;106642;1271;22551;-77
2022/03/25 08:47:07;;;;;;;30.20;25.90;;;;;;;10.90;48.46;98983.76;106662;1271;22541;-78
2022/03/25 08:49:35;;;;;;;29.90;25.90;;;;;;;10.98;47.60;98983.46;107028;1271;25944;-78
2022/03/25 08:52:03;;;;;;;33.70;25.80;;;;;;;11.04;47.10;98983.86;107325;1271;25369;-79
2022/03/25 08:54:31;;;;;;;30.10;23.80;;;;;;;11.17;47.68;98983.06;106373;1271;25344;-78
2022/03/25 08:57:01;;;;;;;27.90;24.90;;;;;;;11.28;46.10;98981.77;106360;1271;22635;-77
2022/03/25 08:59:29;;;;;;;27.80;24.90;;;;;;;11.35;46.03;98978.68;106419;1271;23957;-81
2022/03/25 09:01:57;;;;;;;28.20;24.40;;;;;;;11.37;44.46;98980.22;106465;1271;22631;-80
2022/03/25 09:04:25;;;;;;;26.30;23.10;;;;;;;11.44;44.40;98975.34;106235;1274;25407;-79
2022/03/25 09:06:53;;;;;;;28.70;24.60;;;;;;;11.48;43.51;98977.10;106303;1271;22541;-78
2022/03/25 09:09:21;;;;;;;27.90;24.60;;;;;;;11.50;42.88;98979.84;106450;1271;25474;-80
2022/03/25 09:11:49;;;;;;;29.40;23.90;;;;;;;11.53;43.50;98976.05;106428;1271;23311;-80
2022/03/25 09:14:17;;;;;;;29.10;25.00;;;;;;;11.62;42.75;98976.97;106562;1271;22871;-80
2022/03/25 09:16:45;;;;;;;25.40;22.20;;;;;;;11.74;43.97;98971.82;106523;1269;22590;-80
2022/03/25 09:19:13;;;;;;;27.90;23.20;;;;;;;11.83;42.50;98977.32;106528;1271;22550;-79
2022/03/25 09:21:41;;;;;;;29.50;23.60;;;;;;;11.84;42.29;98970.02;106479;1271;22547;-80
2022/03/25 09:24:09;;;;;;;36.50;23.70;;;;;;;11.85;42.67;98969.48;106518;1271;25360;-78
2022/03/25 09:26:37;;;;;;;25.10;22.40;;;;;;;11.92;41.88;98966.64;106483;1271;24244;-79
2022/03/25 09:29:05;;;;;;;26.70;22.70;;;;;;;12.05;42.97;98965.80;106379;1271;24237;-79
2022/03/25 09:31:33;;;;;;;31.00;24.10;;;;;;;12.21;43.59;98969.13;106375;1271;22599;-80
2022/03/25 09:36:58;;;;;;;36.20;26.80;;;;;;;12.38;42.13;98963.96;106467;1271;22750;-80
2022/03/25 09:39:26;;;;;;;28.70;23.50;;;;;;;12.44;42.50;98959.31;106408;1271;24860;-80
2022/03/25 09:41:54;;;;;;;29.70;25.20;;;;;;;12.54;42.84;98963.54;106553;1271;22643;-80
2022/03/25 09:44:22;;;;;;;27.90;24.80;;;;;;;12.62;42.20;98966.92;106498;1271;25312;-78
2022/03/25 09:46:51;;;;;;;30.20;23.40;;;;;;;12.60;41.11;98971.73;106078;1271;22547;-78
2022/03/25 09:49:20;;;;;;;28.80;24.60;;;;;;;12.63;41.01;98960.52;106041;1274;24444;-78
2022/03/25 09:51:48;;;;;;;28.50;25.30;;;;;;;12.65;39.63;98971.97;106051;1271;25408;-78
2022/03/25 09:54:17;;;;;;;30.90;25.90;;;;;;;12.67;40.23;98970.87;106042;1271;23997;-78
2022/03/25 09:56:44;;;;;;;34.50;24.20;;;;;;;12.70;40.98;98966.19;106111;1271;25528;-78
2022/03/25 09:59:20;;;;;;;30.00;25.70;;;;;;;12.83;41.58;98960.48;106155;1271;25395;-79
2022/03/25 10:01:48;;;;;;;32.90;27.50;;;;;;;12.97;40.37;98961.46;106440;1271;22769;-77
2022/03/25 10:04:43;;;;;;;30.10;26.80;;;;;;;13.10;40.18;98968.45;106407;1271;24959;-78
2022/03/25 10:07:18;;;;;;;31.60;25.20;;;;;;;13.16;40.53;98967.02;106114;1271;22553;-78
2022/03/25 10:09:49;;;;;;;26.70;23.20;;;;;;;13.22;39.81;98963.77;106071;1268;22547;-78
2022/03/25 10:12:26;;;;;;;23.30;20.70;;;;;;;13.26;39.66;98966.77;106386;1271;24263;-79
2022/03/25 10:15:21;;;;;;;23.00;20.50;;;;;;;13.33;40.33;98961.27;106393;1271;25430;-79
2022/03/25 10:18:06;;;;;;;26.90;20.20;;;;;;;13.56;40.82;98961.66;106537;1271;22694;-78
2022/03/25 10:20:41;;;;;;;30.00;21.60;;;;;;;13.76;39.92;98960.69;106722;1271;22549;-78
2022/03/25 10:23:17;;;;;;;29.10;26.10;;;;;;;13.78;39.30;98961.19;106426;1271;23224;-78
2022/03/25 10:25:51;;;;;;;27.80;22.40;;;;;;;13.83;38.85;98960.58;106598;1271;24380;-78
2022/03/25 10:28:44;;;;;;;25.60;20.60;;;;;;;13.83;37.79;98959.88;106598;1271;23055;-78
2022/03/25 10:31:15;;;;;;;28.80;20.70;;;;;;;13.95;38.97;98949.45;106553;1271;25505;-78
2022/03/25 10:33:54;;;;;;;29.30;20.70;;;;;;;14.16;39.68;98948.63;106564;1271;25662;-78
2022/03/25 10:36:25;;;;;;;24.40;20.30;;;;;;;14.41;38.93;98954.67;106677;1271;24119;-78
2022/03/25 10:39:01;;;;;;;24.60;21.80;;;;;;;14.40;36.91;98954.68;106605;1271;22899;-81
2022/03/25 10:41:45;;;;;;;30.70;22.60;;;;;;;14.30;38.12;98954.14;106309;1271;22609;-79
2022/03/25 10:44:13;;;;;;;38.90;21.80;;;;;;;14.39;37.86;98948.95;106648;1271;24247;-77
2022/03/25 10:46:45;;;;;;;26.70;23.00;;;;;;;14.50;37.18;98945.83;106566;1271;22765;-77
2022/03/25 10:49:16;;;;;;;30.10;22.70;;;;;;;14.53;37.46;98943.52;106458;1271;25518;-79
2022/03/25 10:51:58;;;;;;;28.80;22.50;;;;;;;14.58;37.57;98941.95;106594;1271;22624;-78
2022/03/25 10:54:28;;;;;;;32.80;24.80;;;;;;;14.56;36.71;98946.98;106285;1271;22550;-78
2022/03/25 10:56:59;;;;;;;30.80;24.10;;;;;;;14.54;37.22;98940.95;106352;1271;22751;-78
2022/03/25 10:59:34;;;;;;;34.50;26.30;;;;;;;14.55;36.75;98938.87;106809;1271;25328;-78
2022/03/25 11:02:05;;;;;;;30.80;26.10;;;;;;;14.64;37.53;98938.38;106589;1271;23163;-79
2022/03/25 11:04:34;;;;;;;33.80;26.00;;;;;;;14.86;37.87;98931.40;106695;1271;22580;-77
2022/03/25 11:07:02;;;;;;;32.50;24.90;;;;;;;15.10;37.83;98931.13;106643;1271;24297;-79
2022/03/25 11:09:31;;;;;;;31.20;24.90;;;;;;;15.26;35.76;98927.44;106671;1271;22730;-79
2022/03/25 11:11:59;;;;;;;32.70;23.50;;;;;;;15.23;33.59;98928.30;106607;1271;24699;-78
2022/03/25 11:14:27;;;;;;;28.60;21.90;;;;;;;15.20;34.58;98929.29;106571;1271;24447;-78
2022/03/25 11:16:57;;;;;;;34.50;24.00;;;;;;;15.16;34.88;98928.09;106603;1271;24230;-78
2022/03/25 11:19:26;;;;;;;28.60;23.80;;;;;;;15.05;33.99;98930.05;106807;1271;24424;-79
2022/03/25 11:21:59;;;;;;;30.50;23.60;;;;;;;14.93;34.60;98927.56;106506;1271;22547;-79
2022/03/25 11:24:30;;;;;;;30.90;25.40;;;;;;;14.94;34.54;98919.94;106414;1271;22682;-79
2022/03/25 11:27:03;;;;;;;28.60;23.80;;;;;;;15.07;34.66;98920.13;106570;1271;22691;-78
2022/03/25 11:29:33;;;;;;;31.90;22.20;;;;;;;15.18;34.92;98919.85;106766;1271;22639;-79